Terminal Aerodrome Forecast
Issued by NWS Sioux Falls, SD

Home | Current Version | Previous Version | Text Only | Print | Product List | Glossary On
Versions: 1 2 3 4 5 6 7 8 9 10 11 12 13 14 15
464
FTUS43 KFSD 140520
TAFFSD
TAF
KFSD 140520Z 1406/1506 08007KT P6SM SCT200
     FM141200 09005KT P6SM BKN035
     FM141400 09006KT 5SM -SHRA OVC015
     FM141600 08006KT 4SM -SHRA OVC009
     FM142000 02006KT 3SM SHRA OVC009
     FM142300 35011KT 5SM -SHRA OVC010
     FM150300 34017KT P6SM VCSH OVC035=

USA.gov is the U.S. government's official web portal to all federal, state and local government web resources and services.